createdAt,value
2023-02-04T00:00:38.773Z,4.80
2023-02-04T00:03:07.137Z,4.80
2023-02-04T00:05:35.094Z,4.70
2023-02-04T00:08:04.625Z,4.70
2023-02-04T00:10:32.925Z,4.80
2023-02-04T00:13:01.050Z,4.70
2023-02-04T00:15:29.234Z,4.70
2023-02-04T00:17:58.754Z,4.70
2023-02-04T00:20:26.582Z,4.70
2023-02-04T00:22:54.973Z,4.80
2023-02-04T00:25:22.772Z,4.80
2023-02-04T00:27:50.562Z,4.80
2023-02-04T00:30:18.815Z,4.80
2023-02-04T00:32:46.725Z,4.70
2023-02-04T00:35:15.947Z,4.80
2023-02-04T00:37:43.733Z,4.80
2023-02-04T00:40:12.824Z,4.80
2023-02-04T00:42:40.711Z,4.70
2023-02-04T00:45:09.346Z,4.70
2023-02-04T00:47:37.174Z,4.70
2023-02-04T00:50:05.362Z,4.70
2023-02-04T00:52:34.587Z,4.70
2023-02-04T00:55:02.525Z,4.70
2023-02-04T00:57:30.382Z,4.60
2023-02-04T00:59:58.127Z,4.60
2023-02-04T01:02:26.014Z,4.70
2023-02-04T01:04:53.886Z,4.60
2023-02-04T01:07:21.726Z,4.70
2023-02-04T01:09:51.024Z,4.70
2023-02-04T01:12:18.890Z,4.70
2023-02-04T01:14:46.858Z,4.70
2023-02-04T01:17:14.727Z,4.60
2023-02-04T01:19:42.580Z,4.70
2023-02-04T01:22:10.393Z,4.70
2023-02-04T01:24:38.205Z,4.60
2023-02-04T01:27:07.544Z,4.60
2023-02-04T01:29:35.359Z,4.60
2023-02-04T01:32:03.198Z,4.50
2023-02-04T01:34:31.661Z,4.50
2023-02-04T01:36:59.475Z,4.60
2023-02-04T01:39:27.311Z,4.60
2023-02-04T01:41:55.270Z,4.60
2023-02-04T01:44:24.716Z,4.60
2023-02-04T01:46:52.647Z,4.50
2023-02-04T01:49:20.540Z,4.50
2023-02-04T01:51:48.582Z,4.60
2023-02-04T01:54:17.833Z,4.60
2023-02-04T01:56:48.592Z,4.60
2023-02-04T01:59:17.706Z,4.60
2023-02-04T02:01:48.946Z,4.60
2023-02-04T02:04:19.116Z,4.60
2023-02-04T02:06:50.030Z,4.60
2023-02-04T02:09:18.379Z,4.60
2023-02-04T02:11:46.371Z,4.60
2023-02-04T02:14:14.491Z,4.60
2023-02-04T02:16:44.005Z,4.60
2023-02-04T02:19:17.082Z,4.60
2023-02-04T02:21:49.162Z,4.60
2023-02-04T02:24:28.421Z,4.50
2023-02-04T02:26:58.571Z,4.40
2023-02-04T02:29:27.657Z,4.40
2023-02-04T02:31:57.310Z,4.50
2023-02-04T02:34:26.494Z,4.50
2023-02-04T02:36:54.506Z,4.40
2023-02-04T02:39:22.599Z,4.30
2023-02-04T02:41:51.895Z,4.30
2023-02-04T02:44:20.188Z,4.10
2023-02-04T02:46:48.090Z,4.10
2023-02-04T02:49:18.589Z,4.10
2023-02-04T02:51:47.119Z,4.10
2023-02-04T02:54:22.633Z,4.10
2023-02-04T02:56:52.219Z,4.10
2023-02-04T02:59:20.608Z,4.20
2023-02-04T03:01:51.565Z,4.10
2023-02-04T03:04:21.383Z,4.00
2023-02-04T03:06:49.439Z,4.10
2023-02-04T03:09:17.425Z,4.00
2023-02-04T03:11:45.405Z,3.90
2023-02-04T03:14:14.555Z,4.00
2023-02-04T03:16:44.257Z,3.90
2023-02-04T03:19:12.967Z,4.00
2023-02-04T03:21:41.670Z,3.90
2023-02-04T03:24:09.962Z,3.90
2023-02-04T03:26:37.926Z,3.90
2023-02-04T03:29:08.003Z,3.90
2023-02-04T03:31:38.158Z,4.00
2023-02-04T03:34:07.032Z,4.00
2023-02-04T03:36:34.827Z,4.10
2023-02-04T03:39:02.688Z,4.00
2023-02-04T03:41:30.555Z,4.00
2023-02-04T03:43:58.299Z,3.90
2023-02-04T03:46:27.367Z,3.90
2023-02-04T03:48:56.567Z,3.90
2023-02-04T03:51:24.378Z,3.90
2023-02-04T03:53:52.182Z,4.00
2023-02-04T03:56:19.988Z,3.90
2023-02-04T03:58:47.784Z,3.90
2023-02-04T04:01:15.577Z,3.90
2023-02-04T04:03:43.399Z,3.90
2023-02-04T04:06:12.511Z,3.90
2023-02-04T04:08:40.490Z,3.90
2023-02-04T04:11:08.292Z,3.90
2023-02-04T04:13:36.073Z,3.90
2023-02-04T04:16:04.900Z,3.90
2023-02-04T04:18:33.304Z,3.80
2023-02-04T04:21:01.183Z,3.80
2023-02-04T04:23:30.397Z,3.70
2023-02-04T04:25:58.203Z,3.60
2023-02-04T04:28:26.108Z,3.60
2023-02-04T04:30:53.878Z,3.60
2023-02-04T04:33:21.765Z,3.60
2023-02-04T04:35:49.584Z,3.70
2023-02-04T04:38:17.410Z,3.50
2023-02-04T04:40:46.584Z,3.50
2023-02-04T04:43:14.378Z,3.60
2023-02-04T04:45:42.142Z,3.60
2023-02-04T04:48:10.002Z,3.60
2023-02-04T04:50:37.862Z,3.60
2023-02-04T04:53:06.510Z,3.50
2023-02-04T04:55:34.268Z,3.50
2023-02-04T04:58:03.330Z,3.50
2023-02-04T05:00:31.579Z,3.50
2023-02-04T05:02:59.728Z,3.50
2023-02-04T05:05:27.589Z,3.50
2023-02-04T05:07:55.347Z,3.70
2023-02-04T05:10:23.172Z,3.70
2023-02-04T05:12:51.079Z,3.50
2023-02-04T05:15:20.610Z,3.50
2023-02-04T05:17:48.381Z,3.50
2023-02-04T05:20:16.284Z,3.60
2023-02-04T05:22:44.082Z,3.60
2023-02-04T05:25:12.006Z,3.50
2023-02-04T05:27:39.947Z,3.60
2023-02-04T05:30:08.678Z,3.60
2023-02-04T05:32:37.839Z,3.70
2023-02-04T05:35:06.609Z,3.60
2023-02-04T05:37:34.709Z,3.60
2023-02-04T05:40:02.564Z,3.60
2023-02-04T05:42:30.317Z,3.50
2023-02-04T05:44:58.139Z,3.50
2023-02-04T05:47:26.087Z,3.50
2023-02-04T05:49:55.578Z,3.50
2023-02-04T05:52:23.367Z,3.50
2023-02-04T05:54:51.225Z,3.50
2023-02-04T05:57:19.042Z,3.50
2023-02-04T05:59:46.847Z,3.50
2023-02-04T06:02:14.659Z,3.60
2023-02-04T06:04:44.701Z,3.50
2023-02-04T06:07:13.999Z,3.50
2023-02-04T06:09:41.782Z,3.50
2023-02-04T06:12:10.468Z,3.50
2023-02-04T06:14:38.279Z,3.40
2023-02-04T06:17:06.048Z,3.50
2023-02-04T06:19:33.838Z,3.50
2023-02-04T06:22:01.705Z,3.50
2023-02-04T06:24:30.880Z,3.40
2023-02-04T06:26:58.692Z,3.50
2023-02-04T06:29:26.518Z,3.50
2023-02-04T06:31:54.417Z,3.60
2023-02-04T06:34:22.327Z,3.60
2023-02-04T06:36:50.111Z,3.50
2023-02-04T06:39:17.913Z,3.40
2023-02-04T06:41:47.095Z,3.40
2023-02-04T06:44:14.870Z,3.50
2023-02-04T06:46:42.664Z,3.50
2023-02-04T06:49:10.456Z,3.50
2023-02-04T06:51:38.205Z,3.60
2023-02-04T06:54:06.002Z,3.50
2023-02-04T06:56:33.754Z,3.60
2023-02-04T06:59:03.497Z,3.50
2023-02-04T07:01:31.457Z,3.60
2023-02-04T07:03:59.298Z,3.50
2023-02-04T07:06:27.064Z,3.60
2023-02-04T07:08:54.815Z,3.60
2023-02-04T07:11:22.666Z,3.60
2023-02-04T07:13:50.469Z,3.60
2023-02-04T07:16:19.608Z,3.60
2023-02-04T07:18:47.371Z,3.50
2023-02-04T07:21:15.199Z,3.60
2023-02-04T07:23:43.072Z,3.60
2023-02-04T07:26:10.905Z,3.60
2023-02-04T07:28:41.021Z,3.60
2023-02-04T07:31:08.974Z,3.70
2023-02-04T07:33:38.262Z,3.70
2023-02-04T07:36:06.557Z,3.70
2023-02-04T07:38:34.510Z,3.70
2023-02-04T07:41:02.360Z,3.70
2023-02-04T07:43:30.309Z,3.70
2023-02-04T07:45:58.189Z,3.70
2023-02-04T07:48:26.021Z,3.70
2023-02-04T07:50:55.249Z,3.70
2023-02-04T07:53:23.046Z,3.60
2023-02-04T07:55:50.950Z,3.60
2023-02-04T07:58:18.750Z,3.60
2023-02-04T08:00:46.974Z,3.60
2023-02-04T08:03:14.869Z,3.60
2023-02-04T08:05:42.640Z,3.60
2023-02-04T08:08:12.063Z,3.60
2023-02-04T08:10:39.882Z,3.60
2023-02-04T08:13:07.833Z,3.70
2023-02-04T08:15:35.735Z,3.70
2023-02-04T08:18:03.543Z,3.80
2023-02-04T08:20:32.268Z,3.70
2023-02-04T08:23:00.499Z,3.70
2023-02-04T08:25:29.995Z,3.70
2023-02-04T08:27:57.869Z,3.80
2023-02-04T08:30:25.799Z,3.80
2023-02-04T08:32:53.662Z,3.70
2023-02-04T08:35:21.464Z,3.70
2023-02-04T08:37:49.330Z,3.60
2023-02-04T08:40:18.453Z,3.60
2023-02-04T08:42:50.455Z,3.70
2023-02-04T08:45:18.458Z,4.10
2023-02-04T08:47:46.284Z,5.60
2023-02-04T08:50:14.230Z,5.80
2023-02-04T08:52:42.128Z,4.90
2023-02-04T08:55:10.194Z,6.00
2023-02-04T08:57:38.045Z,7.10
2023-02-04T09:00:09.256Z,6.80
2023-02-04T09:02:37.169Z,5.50
2023-02-04T09:05:05.246Z,5.20
2023-02-04T09:07:32.996Z,4.80
2023-02-04T09:10:00.867Z,4.70
2023-02-04T09:12:28.716Z,4.60
2023-02-04T09:14:56.642Z,4.50
2023-02-04T09:17:25.788Z,4.50
2023-02-04T09:19:53.614Z,4.50
2023-02-04T09:22:21.405Z,4.50
2023-02-04T09:24:49.237Z,4.50
2023-02-04T09:27:17.088Z,4.60
2023-02-04T09:29:44.903Z,4.60
2023-02-04T09:32:12.717Z,4.50
2023-02-04T09:34:41.952Z,4.40
2023-02-04T09:37:09.788Z,4.40
2023-02-04T09:39:37.601Z,4.30
2023-02-04T09:42:05.750Z,4.30
2023-02-04T09:44:33.670Z,4.40
2023-02-04T09:47:05.186Z,4.40
2023-02-04T09:49:34.158Z,4.30
2023-02-04T09:52:03.465Z,4.40
2023-02-04T09:54:31.446Z,4.30
2023-02-04T09:56:59.712Z,4.30
2023-02-04T09:59:29.327Z,4.30
2023-02-04T10:02:00.709Z,4.30
2023-02-04T10:04:29.642Z,4.20
2023-02-04T10:06:58.948Z,4.20
2023-02-04T10:09:28.387Z,4.30
2023-02-04T10:11:56.329Z,4.30
2023-02-04T10:14:24.723Z,4.40
2023-02-04T10:16:58.928Z,4.30
2023-02-04T10:19:29.282Z,4.20
2023-02-04T10:21:57.789Z,4.20
2023-02-04T10:24:30.453Z,4.10
2023-02-04T10:27:09.291Z,4.10
2023-02-04T10:29:37.114Z,4.00
2023-02-04T10:32:05.120Z,4.00
2023-02-04T10:34:37.689Z,4.30
2023-02-04T10:37:19.375Z,4.20
2023-02-04T10:39:49.654Z,4.40
2023-02-04T10:42:22.857Z,4.10
2023-02-04T10:44:50.936Z,4.40
2023-02-04T10:47:20.647Z,4.60
2023-02-04T10:49:56.874Z,4.20
2023-02-04T10:52:31.725Z,4.50
2023-02-04T10:55:01.746Z,4.40
2023-02-04T10:57:31.347Z,4.40
2023-02-04T11:00:02.115Z,4.40
2023-02-04T11:02:44.723Z,4.30
2023-02-04T11:05:15.414Z,4.30
2023-02-04T11:07:43.363Z,4.30
2023-02-04T11:10:19.264Z,4.30
2023-02-04T11:12:59.713Z,4.30
2023-02-04T11:16:09.166Z,4.20
2023-02-04T11:18:47.619Z,4.10
2023-02-04T11:21:21.943Z,4.10
2023-02-04T11:23:50.342Z,4.30
2023-02-04T11:26:32.440Z,4.40
2023-02-04T11:29:25.626Z,4.40
2023-02-04T11:32:02.476Z,4.20
2023-02-04T11:34:33.086Z,4.40
2023-02-04T11:37:28.715Z,4.60
2023-02-04T11:39:59.964Z,4.60
2023-02-04T11:42:33.077Z,5.10
2023-02-04T11:45:03.570Z,5.50
2023-02-04T11:47:37.010Z,6.30
2023-02-04T11:50:13.380Z,5.60
2023-02-04T11:52:41.993Z,5.40
2023-02-04T11:55:12.502Z,5.30
2023-02-04T11:57:42.444Z,5.30
2023-02-04T12:00:18.277Z,5.30
2023-02-04T12:02:48.108Z,5.30
2023-02-04T12:05:18.063Z,5.70
2023-02-04T12:07:47.444Z,5.60
2023-02-04T12:10:24.447Z,6.30
2023-02-04T12:12:57.486Z,6.50
2023-02-04T12:15:33.318Z,5.70
2023-02-04T12:18:03.614Z,5.50
2023-02-04T12:20:31.531Z,6.00
2023-02-04T12:22:59.394Z,5.90
2023-02-04T12:25:27.699Z,5.70
2023-02-04T12:27:57.545Z,4.90
2023-02-04T12:30:26.987Z,5.00
2023-02-04T12:32:54.793Z,5.30
2023-02-04T12:35:22.532Z,5.00
2023-02-04T12:37:53.232Z,5.10
2023-02-04T12:40:22.490Z,5.00
2023-02-04T12:42:50.362Z,5.60
2023-02-04T12:45:19.869Z,5.70
2023-02-04T12:47:47.744Z,5.00
2023-02-04T12:50:22.364Z,4.90
2023-02-04T12:52:51.768Z,5.70
2023-02-04T12:55:20.126Z,5.20
2023-02-04T12:57:48.011Z,5.10
2023-02-04T13:00:17.959Z,5.20
2023-02-04T13:02:47.330Z,5.20
2023-02-04T13:05:16.254Z,5.20
2023-02-04T13:07:44.231Z,5.20
2023-02-04T13:10:14.667Z,5.10
2023-02-04T13:12:42.818Z,5.20
2023-02-04T13:15:11.796Z,4.90
2023-02-04T13:17:39.795Z,5.20
2023-02-04T13:20:10.435Z,5.00
2023-02-04T13:22:38.443Z,5.30
2023-02-04T13:25:07.438Z,5.30
2023-02-04T13:27:35.349Z,5.30
2023-02-04T13:30:03.214Z,5.30
2023-02-04T13:32:31.021Z,5.30
2023-02-04T13:34:58.872Z,5.20
2023-02-04T13:37:28.085Z,5.20
2023-02-04T13:39:55.920Z,4.90
2023-02-04T13:42:23.747Z,5.10
2023-02-04T13:44:51.642Z,4.90
2023-02-04T13:47:19.544Z,4.80
2023-02-04T13:49:47.458Z,4.80
2023-02-04T13:52:18.216Z,5.00
2023-02-04T13:54:47.441Z,5.20
2023-02-04T13:57:17.015Z,5.20
2023-02-04T13:59:44.789Z,5.10
2023-02-04T14:02:12.667Z,5.20
2023-02-04T14:04:43.765Z,5.10
2023-02-04T14:07:11.658Z,5.20
2023-02-04T14:09:39.467Z,5.20
2023-02-04T14:12:08.836Z,5.10
2023-02-04T14:14:36.638Z,5.10
2023-02-04T14:17:04.454Z,5.20
2023-02-04T14:19:32.534Z,5.10
2023-02-04T14:22:00.381Z,5.30
2023-02-04T14:24:31.264Z,5.10
2023-02-04T14:26:59.105Z,5.00
2023-02-04T14:29:28.248Z,5.20
2023-02-04T14:31:56.087Z,5.20
2023-02-04T14:34:23.957Z,5.00
2023-02-04T14:36:51.750Z,4.90
2023-02-04T14:39:19.524Z,4.90
2023-02-04T14:41:47.658Z,4.90
2023-02-04T14:44:20.402Z,5.00
2023-02-04T14:46:50.441Z,5.00
2023-02-04T14:49:18.475Z,4.90
2023-02-04T14:51:46.507Z,5.00
2023-02-04T14:54:14.953Z,5.00
2023-02-04T14:56:44.438Z,5.00
2023-02-04T14:59:12.287Z,4.80
2023-02-04T15:01:40.085Z,4.80
2023-02-04T15:04:12.159Z,4.90
2023-02-04T15:06:40.010Z,4.90
2023-02-04T15:09:07.857Z,4.80
2023-02-04T15:11:35.663Z,4.50
2023-02-04T15:14:03.506Z,4.60
2023-02-04T15:16:31.320Z,4.60
2023-02-04T15:18:59.109Z,4.70
2023-02-04T15:21:28.352Z,4.50
2023-02-04T15:23:56.193Z,4.60
2023-02-04T15:26:24.999Z,4.70
2023-02-04T15:28:52.884Z,4.70
2023-02-04T15:31:23.737Z,4.70
2023-02-04T15:33:51.826Z,4.80
2023-02-04T15:36:19.829Z,4.40
2023-02-04T15:38:49.366Z,4.50
2023-02-04T15:41:17.320Z,4.50
2023-02-04T15:43:45.184Z,4.60
2023-02-04T15:46:13.026Z,4.60
2023-02-04T15:48:40.958Z,4.40
2023-02-04T15:51:08.736Z,4.50
2023-02-04T15:53:37.589Z,4.50
2023-02-04T15:56:07.241Z,4.50
2023-02-04T15:58:35.107Z,4.50
2023-02-04T16:01:02.915Z,4.50
2023-02-04T16:03:30.775Z,4.40
2023-02-04T16:05:58.760Z,4.30
2023-02-04T16:08:26.597Z,4.40
2023-02-04T16:10:54.965Z,4.40
2023-02-04T16:13:24.133Z,4.40
2023-02-04T16:15:51.996Z,4.40
2023-02-04T16:18:19.857Z,4.40
2023-02-04T16:20:47.690Z,4.30
2023-02-04T16:23:15.575Z,4.30
2023-02-04T16:25:43.416Z,4.30
2023-02-04T16:28:11.330Z,4.30
2023-02-04T16:30:40.602Z,4.30
2023-02-04T16:33:08.499Z,4.20
2023-02-04T16:35:58.992Z,4.20
2023-02-04T16:38:26.921Z,4.20
2023-02-04T16:40:56.094Z,4.20
2023-02-04T16:43:24.515Z,4.20
2023-02-04T16:45:53.743Z,4.20
2023-02-04T16:48:21.686Z,4.20
2023-02-04T16:50:49.493Z,4.20
2023-02-04T16:53:17.334Z,4.20
2023-02-04T16:55:45.677Z,4.20
2023-02-04T16:58:14.532Z,4.10
2023-02-04T17:00:43.943Z,4.10
2023-02-04T17:03:13.786Z,4.10
2023-02-04T17:05:42.414Z,4.10
2023-02-04T17:08:12.670Z,4.20
2023-02-04T17:10:59.072Z,4.10
2023-02-04T17:13:27.062Z,4.10
2023-02-04T17:16:00.323Z,4.10
2023-02-04T17:18:31.598Z,3.90
2023-02-04T17:21:01.127Z,3.80
2023-02-04T17:23:29.615Z,3.80
2023-02-04T17:25:57.476Z,3.80
2023-02-04T17:28:26.131Z,3.90
2023-02-04T17:30:54.154Z,4.00
2023-02-04T17:33:22.250Z,3.90
2023-02-04T17:35:51.436Z,3.90
2023-02-04T17:38:19.350Z,3.90
2023-02-04T17:40:47.612Z,3.80
2023-02-04T17:43:15.431Z,3.80
2023-02-04T17:45:43.705Z,3.80
2023-02-04T17:48:11.598Z,3.80
2023-02-04T17:50:40.242Z,3.70
2023-02-04T17:53:10.596Z,3.70
2023-02-04T17:55:39.890Z,3.70
2023-02-04T17:58:15.026Z,3.70
2023-02-04T18:00:45.178Z,3.60
2023-02-04T18:03:14.707Z,3.70
2023-02-04T18:05:46.360Z,3.60
2023-02-04T18:08:17.958Z,3.60
2023-02-04T18:10:47.030Z,3.60
2023-02-04T18:13:17.151Z,3.60
2023-02-04T18:15:47.149Z,3.60
2023-02-04T18:18:23.857Z,3.60
2023-02-04T18:21:00.543Z,3.50
2023-02-04T18:23:34.571Z,3.50
2023-02-04T18:26:12.344Z,3.50
2023-02-04T18:28:44.416Z,3.40
2023-02-04T18:31:26.841Z,3.40
2023-02-04T18:33:55.287Z,3.40
2023-02-04T18:36:23.318Z,3.30
2023-02-04T18:38:52.523Z,3.30
2023-02-04T18:41:33.788Z,3.30
2023-02-04T18:44:17.752Z,3.30
2023-02-04T18:46:48.437Z,3.30
2023-02-04T18:49:25.440Z,3.30
2023-02-04T18:51:53.577Z,3.20
2023-02-04T18:54:33.987Z,3.20
2023-02-04T18:57:20.456Z,3.20
2023-02-04T18:59:48.303Z,3.20
2023-02-04T19:02:35.350Z,3.10
2023-02-04T19:05:13.196Z,3.10
2023-02-04T19:07:41.525Z,3.10
2023-02-04T19:10:27.756Z,3.10
2023-02-04T19:13:01.475Z,3.10
2023-02-04T19:15:39.502Z,3.10
2023-02-04T19:18:23.626Z,3.10
2023-02-04T19:20:51.891Z,3.00
2023-02-04T19:23:21.611Z,3.00
2023-02-04T19:25:52.156Z,3.00
2023-02-04T19:28:28.652Z,3.00
2023-02-04T19:31:03.070Z,2.90
2023-02-04T19:33:36.604Z,2.90
2023-02-04T19:36:22.668Z,2.90
2023-02-04T19:38:56.286Z,2.90
2023-02-04T19:41:31.857Z,2.80
2023-02-04T19:44:28.891Z,2.80
2023-02-04T19:46:58.354Z,2.80
2023-02-04T19:49:29.699Z,2.80
2023-02-04T19:51:58.898Z,2.70
2023-02-04T19:54:37.186Z,2.70
2023-02-04T19:57:19.027Z,2.70
2023-02-04T19:59:46.812Z,2.60
2023-02-04T20:02:29.154Z,2.60
2023-02-04T20:04:57.046Z,2.60
2023-02-04T20:07:26.380Z,2.60
2023-02-04T20:09:58.487Z,2.60
2023-02-04T20:12:29.476Z,2.60
2023-02-04T20:14:58.198Z,2.60
2023-02-04T20:17:40.287Z,2.60
2023-02-04T20:20:27.601Z,2.60
2023-02-04T20:22:56.830Z,2.50
2023-02-04T20:25:46.893Z,2.50
2023-02-04T20:28:26.605Z,2.50
2023-02-04T20:30:56.253Z,2.40
2023-02-04T20:33:36.014Z,2.40
2023-02-04T20:36:28.196Z,2.40
2023-02-04T20:39:07.849Z,2.40
2023-02-04T20:41:38.088Z,2.40
2023-02-04T20:44:16.444Z,2.30
2023-02-04T20:46:44.682Z,2.40
2023-02-04T20:49:23.671Z,2.40
2023-02-04T20:51:52.627Z,2.40
2023-02-04T20:54:20.463Z,2.40
2023-02-04T20:56:48.217Z,2.30
2023-02-04T20:59:33.595Z,2.30
2023-02-04T21:02:04.620Z,2.40
2023-02-04T21:04:36.894Z,2.40
2023-02-04T21:07:14.548Z,2.40
2023-02-04T21:09:42.383Z,2.50
2023-02-04T21:12:10.237Z,2.40
2023-02-04T21:14:39.640Z,2.30
2023-02-04T21:17:07.766Z,2.30
2023-02-04T21:19:35.631Z,2.20
2023-02-04T21:22:03.479Z,2.20
2023-02-04T21:24:31.810Z,2.20
2023-02-04T21:26:59.721Z,2.20
2023-02-04T21:29:27.646Z,2.20
2023-02-04T21:31:56.897Z,2.20
2023-02-04T21:34:24.747Z,2.20
2023-02-04T21:36:52.648Z,2.20
2023-02-04T21:39:20.844Z,2.20
2023-02-04T21:42:08.691Z,2.20
2023-02-04T21:44:36.576Z,2.20
2023-02-04T21:47:05.856Z,2.20
2023-02-04T21:49:33.681Z,2.20
2023-02-04T21:52:01.560Z,2.10
2023-02-04T21:54:29.417Z,2.00
2023-02-04T21:56:57.219Z,2.10
2023-02-04T21:59:25.142Z,2.10
2023-02-04T22:01:53.049Z,2.10
2023-02-04T22:04:22.223Z,2.00
2023-02-04T22:06:50.126Z,2.10
2023-02-04T22:09:20.408Z,2.10
2023-02-04T22:11:48.579Z,2.10
2023-02-04T22:14:16.343Z,2.10
2023-02-04T22:16:46.666Z,2.10
2023-02-04T22:19:14.536Z,2.10
2023-02-04T22:21:43.826Z,2.10
2023-02-04T22:24:11.691Z,2.00
2023-02-04T22:26:39.488Z,2.00
2023-02-04T22:29:07.309Z,2.00
2023-02-04T22:31:35.604Z,2.00
2023-02-04T22:34:05.362Z,2.00
2023-02-04T22:36:33.210Z,2.00
2023-02-04T22:39:02.421Z,2.00
2023-02-04T22:41:30.283Z,1.90
2023-02-04T22:43:58.047Z,1.90
2023-02-04T22:46:25.966Z,2.00
2023-02-04T22:48:53.764Z,1.90
2023-02-04T22:51:21.535Z,1.90
2023-02-04T22:53:49.413Z,1.90
2023-02-04T22:56:18.667Z,1.90
2023-02-04T23:01:21.925Z,1.90
2023-02-04T23:03:50.042Z,1.80
2023-02-04T23:06:18.229Z,1.80
2023-02-04T23:08:47.115Z,1.80
2023-02-04T23:11:15.561Z,1.80
2023-02-04T23:13:44.856Z,1.80
2023-02-04T23:16:12.707Z,1.80
2023-02-04T23:18:40.519Z,1.80
2023-02-04T23:21:10.059Z,1.80
2023-02-04T23:23:38.417Z,1.70
2023-02-04T23:26:06.779Z,1.70
2023-02-04T23:28:34.650Z,1.60
2023-02-04T23:31:03.857Z,1.60
2023-02-04T23:33:31.812Z,1.70
2023-02-04T23:35:59.703Z,1.70
2023-02-04T23:38:27.474Z,1.60
2023-02-04T23:40:57.002Z,1.60
2023-02-04T23:43:24.768Z,1.60
2023-02-04T23:45:52.621Z,1.60
2023-02-04T23:48:21.889Z,1.50
2023-02-04T23:50:49.683Z,1.50
2023-02-04T23:53:19.212Z,1.50
2023-02-04T23:55:47.152Z,1.50
2023-02-04T23:58:14.976Z,1.50
